Latest Weather Observations for Cunderdin Airport

IDW60801

Issued at 11:35 pm WST Friday 28 November 2014 (issued every 30 minutes, with the page automatically refreshed every 10 minutes)

About weather observations | Map of weather stations | Latest weather observations for WA | Other Formats
Station Details ID: 010286 Name: CUNDERDIN AIRFIELD Lat: -31.62 Lon: 117.22 Height: 216.7 m
Data from the previous 72 hours. | See also: Recent months at Cunderdin Airport
Date/Time
WST
Temp
°C
App
Temp
°C
Dew
Point
Rel
Hum
%
Delta-T
°C
Wind Press
QNH
hPa
Press
MSL
hPa
Rain
since 9 am
mm
Dir
 
Spd
km/h
Gust
km/h
Spd
kts
Gust
kts
28/11:30pm 16.6 15.2 14.6 88 1.2 W 15 19 8 10 1012.5 1011.7 0.0
28/11:00pm 16.8 15.0 14.4 86 1.4 W 17 20 9 11 1012.8 1012.0 0.0
28/10:30pm 17.0 15.5 14.1 83 1.7 W 15 19 8 10 1012.9 1012.1 0.0
28/10:00pm 17.4 14.9 14.1 81 1.9 W 20 24 11 13 1013.1 1012.3 0.0
28/09:30pm 17.7 15.4 14.0 79 2.1 W 19 24 10 13 1013.0 1012.2 0.0
28/09:00pm 18.1 15.6 14.0 77 2.4 W 20 28 11 15 1012.9 1012.1 0.0
28/08:30pm 18.5 15.9 13.8 74 2.7 W 20 28 11 15 1012.6 1011.8 0.0
28/08:00pm 19.3 16.0 13.9 71 3.1 WSW 24 32 13 17 1012.3 1011.5 0.0
28/07:30pm 20.0 16.4 14.1 69 3.4 W 26 35 14 19 1012.3 1011.5 0.0
28/07:00pm 20.8 16.8 14.2 66 3.9 W 28 35 15 19 1012.0 1011.2 0.0
28/06:30pm 22.9 18.1 14.5 59 5.0 W 33 43 18 23 1011.5 1010.7 0.0
28/06:00pm 24.5 19.9 14.6 54 5.9 WSW 32 43 17 23 1010.8 1010.0 0.0
28/05:30pm 25.6 20.7 14.4 50 6.7 W 33 44 18 24 1010.2 1009.4 0.0
28/05:00pm 26.5 21.5 13.9 45 7.5 W 33 44 18 24 1009.7 1008.9 0.0
28/04:30pm 27.2 21.9 13.2 42 8.3 W 33 41 18 22 1009.2 1008.4 0.0
28/04:00pm 27.5 22.3 14.5 45 7.9 W 35 46 19 25 1009.0 1008.2 0.0
28/03:30pm 27.9 23.4 14.9 45 7.9 W 32 43 17 23 1008.7 1007.9 0.0
28/03:00pm 28.2 23.4 15.5 46 7.9 W 35 44 19 24 1008.7 1007.9 0.0
28/02:30pm 28.8 24.4 15.7 45 8.1 W 33 43 18 23 1008.8 1008.0 0.0
28/02:00pm 28.8 24.0 15.7 45 8.1 W 35 46 19 25 1008.9 1008.1 0.0
28/01:30pm 30.3 25.9 15.6 41 9.2 W 33 46 18 25 1008.9 1008.1 0.0
28/01:00pm 29.8 25.4 14.0 38 9.6 W 30 39 16 21 1008.9 1008.1 0.0
28/12:30pm 29.7 25.5 14.7 40 9.2 W 30 41 16 22 1009.1 1008.3 0.0
28/12:00pm 27.8 24.8 14.8 45 7.9 WSW 24 41 13 22 1009.2 1008.4 0.0
28/11:30am 28.7 26.0 14.5 42 8.7 W 22 35 12 19 1009.2 1008.4 0.0
28/11:00am 28.2 25.8 16.5 49 7.3 W 24 32 13 17 1009.4 1008.6 0.0
28/10:30am 27.8 25.0 16.4 50 7.1 W 26 32 14 17 1009.7 1008.9 0.0
28/10:00am 26.6 25.5 17.4 57 5.8 WSW 19 28 10 15 1009.8 1009.0 0.0
28/09:30am 24.8 24.5 17.3 63 4.7 SW 15 24 8 13 1009.9 1009.1 0.0
28/09:00am 24.8 23.8 18.0 66 4.3 WSW 20 24 11 13 1010.0 1009.2 9.4
28/08:30am 23.1 23.1 18.0 73 3.2 SSW 15 22 8 12 1010.1 1009.3 9.4
28/08:00am 22.7 22.8 18.3 76 2.8 SW 15 24 8 13 1010.0 1009.2 9.4
28/07:30am 21.2 21.7 17.4 79 2.4 SSW 11 17 6 9 1009.9 1009.1 9.4
28/07:00am 20.1 20.1 17.3 84 1.7 SW 13 17 7 9 1009.8 1009.0 9.4
28/06:30am 19.2 19.3 17.5 90 1.0 SSW 13 17 7 9 1009.8 1009.0 9.4
28/06:00am 18.0 18.4 17.2 95 0.5 SW 11 15 6 8 1009.3 1008.5 9.4
28/05:30am 17.3 16.4 16.8 97 0.3 SW 17 20 9 11 1009.6 1008.8 9.4
28/05:00am 17.2 17.0 16.7 97 0.3 SW 13 15 7 8 1009.2 1008.4 9.4
28/04:30am 17.4 18.0 16.9 97 0.3 W 9 13 5 7 1008.9 1008.1 9.4
28/04:00am 17.7 19.4 17.1 96 0.4 E 4 6 2 3 1008.5 1007.7 9.4
28/03:30am 18.2 20.1 17.6 96 0.4 SW 4 9 2 5 1008.8 1008.0 9.4
28/03:00am 18.0 19.2 17.4 96 0.4 SW 7 11 4 6 1008.6 1007.8 9.4
28/02:30am 18.1 18.1 17.3 95 0.5 NW 13 19 7 10 1009.7 1008.9 9.4
28/02:00am 17.5 19.7 16.5 94 0.6 CALM 0 0 0 0 1008.8 1008.0 9.0
28/01:30am 18.0 19.3 17.0 94 0.6 WNW 6 7 3 4 1009.0 1008.2 9.0
28/01:00am 18.4 19.8 17.4 94 0.6 W 6 11 3 6 1009.1 1008.3 9.0
28/12:30am 18.2 18.6 17.2 94 0.6 WNW 11 17 6 9 1009.4 1008.6 9.0
28/12:00am 18.0 20.3 16.7 92 0.8 CALM 0 0 0 0 1009.6 1008.8 9.0
 
Date/Time
WST
Temp
°C
App
Temp
°C
Dew
Point
Rel
Hum
%
Delta-T
°C
Wind Press
QNH
hPa
Press
MSL
hPa
Rain
since 9 am
mm
Dir
 
Spd
km/h
Gust
km/h
Spd
kts
Gust
kts
27/11:30pm 18.2 18.7 16.5 90 1.0 ENE 9 13 5 7 1009.7 1008.9 9.0
27/11:00pm 18.8 18.6 16.8 88 1.2 E 13 15 7 8 1009.6 1008.8 9.0
27/10:30pm 19.2 18.2 16.6 85 1.6 ESE 17 24 9 13 1009.6 1008.8 9.0
27/10:00pm 19.0 17.5 16.4 85 1.6 ESE 19 28 10 15 1010.0 1009.2 9.0
27/09:30pm 19.4 16.9 16.1 81 2.0 ESE 24 33 13 18 1010.3 1009.5 9.0
27/09:00pm 19.6 17.1 16.1 80 2.1 SE 24 37 13 20 1010.2 1009.4 9.0
27/08:30pm 19.9 18.7 16.2 79 2.2 SE 17 22 9 12 1010.3 1009.5 9.0
27/08:00pm 20.3 19.2 16.3 78 2.4 SE 17 22 9 12 1010.4 1009.6 9.0
27/07:30pm 21.2 21.3 17.4 79 2.4 SE 13 20 7 11 1010.2 1009.4 9.0
27/07:00pm 21.9 23.0 17.9 78 2.5 SSE 9 13 5 7 1010.0 1009.2 9.0
27/06:30pm 22.8 21.9 18.1 75 3.0 S 20 32 11 17 1009.8 1009.0 9.0
27/06:00pm 23.4 21.5 18.5 74 3.1 S 26 35 14 19 1009.4 1008.6 9.0
27/05:30pm 22.9 21.1 18.7 77 2.7 S 26 33 14 18 1009.1 1008.3 9.0
27/05:00pm 21.6 22.2 21.3 98 0.2 SSW 20 28 11 15 1009.4 1008.6 9.0
27/04:30pm 19.5 18.7 19.2 98 0.2 SSW 22 28 12 15 1008.8 1008.0 9.0
27/04:00pm 18.4 18.4 18.1 98 0.2 N 15 20 8 11 1009.6 1008.8 9.0
27/03:40pm 17.0 12.9 16.4 96 0.4 NE 33 52 18 28 1009.2 1008.4 8.8
27/03:37pm 17.0 11.7 16.2 95 0.5 NNE 39 52 21 28 1010.0 1009.2 8.2
27/03:31pm 16.5 9.2 14.5 88 1.2 NNW 46 69 25 37 1010.7 1009.9 3.4
27/03:30pm 18.5 11.7 15.9 85 1.6 NNW 46 63 25 34 1010.6 1009.8 2.0
27/03:27pm 19.3 12.1 15.8 80 2.1 NNW 48 67 26 36 1010.2 1009.4 0.2
27/03:20pm 24.6 17.2 14.1 52 6.3 NNW 46 67 25 36 1010.2 1009.4 0.0
27/03:11pm 29.1 25.4 14.9 42 8.7 W 28 43 15 23 1008.4 1007.6 0.0
27/03:00pm 29.9 30.8 14.0 37 9.7 ENE 2 9 1 5 1008.2 1007.4 0.0
27/02:30pm 30.8 30.6 13.6 35 10.4 S 7 19 4 10 1008.0 1007.2 0.0
27/02:00pm 32.8 33.5 14.4 33 11.4 ESE 4 13 2 7 1008.2 1007.4 0.0
27/01:30pm 31.9 32.4 14.1 34 10.9 N 4 7 2 4 1008.7 1007.9 0.0
27/01:00pm 30.8 30.2 13.6 35 10.4 NNW 9 19 5 10 1009.2 1008.4 0.0
27/12:30pm 31.4 30.8 14.5 35 10.4 W 11 17 6 9 1009.8 1009.0 0.0
27/12:00pm 30.4 28.9 14.1 37 9.9 WNW 15 24 8 13 1010.2 1009.4 0.0
27/11:30am 30.5 29.3 15.0 39 9.6 NNW 15 24 8 13 1010.6 1009.8 0.0
27/11:00am 30.5 29.0 15.4 40 9.4 NNW 17 26 9 14 1011.0 1010.2 0.0
27/10:30am 29.7 30.0 16.1 43 8.5 NNE 9 20 5 11 1011.3 1010.5 0.0
27/10:00am 28.8 27.3 14.2 40 8.9 N 15 22 8 12 1011.7 1010.9 0.0
27/09:30am 28.9 28.2 15.4 44 8.3 N 13 24 7 13 1011.9 1011.1 0.0
27/09:00am 27.9 27.1 15.2 46 7.8 NNE 13 17 7 9 1012.2 1011.4 13.0
27/08:30am 26.4 26.5 16.6 55 6.1 NNE 11 17 6 9 1012.6 1011.8 13.0
27/08:00am 24.4 24.0 17.1 63 4.6 NE 15 20 8 11 1012.8 1012.0 13.0
27/07:30am 24.2 25.7 17.7 67 4.1 ENE 6 9 3 5 1012.7 1011.9 13.0
27/07:00am 22.1 24.3 17.5 75 2.9 NNE 2 7 1 4 1012.7 1011.9 13.0
27/06:30am 22.1 22.6 17.5 75 2.9 NE 11 17 6 9 1012.4 1011.6 13.0
27/06:00am 21.9 24.7 17.9 78 2.5 CALM 0 4 0 2 1012.2 1011.4 13.0
27/05:30am 19.1 20.4 17.1 88 1.2 ENE 6 11 3 6 1012.2 1011.4 13.0
27/05:00am 18.9 20.8 17.7 93 0.7 SE 4 7 2 4 1012.0 1011.2 13.0
27/04:30am 18.5 21.0 17.3 93 0.7 CALM 0 0 0 0 1011.8 1011.0 13.0
27/04:00am 18.8 20.4 17.8 94 0.6 S 6 7 3 4 1011.4 1010.6 13.0
27/03:30am 18.7 21.3 17.4 92 0.8 CALM 0 0 0 0 1011.2 1010.4 13.0
27/03:00am 19.0 21.6 17.5 91 0.9 CALM 0 2 0 1 1011.5 1010.7 13.0
27/02:30am 19.1 21.5 17.1 88 1.2 CALM 0 6 0 3 1011.4 1010.6 13.0
27/02:00am 19.7 20.7 16.9 84 1.7 E 7 11 4 6 1011.4 1010.6 13.0
27/01:30am 19.7 20.8 17.1 85 1.6 ESE 7 13 4 7 1011.2 1010.4 13.0
27/01:00am 19.6 20.4 17.2 86 1.5 E 9 11 5 6 1011.5 1010.7 13.0
27/12:30am 19.8 20.5 17.0 84 1.7 E 9 13 5 7 1011.7 1010.9 13.0
27/12:00am 20.1 19.7 17.1 83 1.8 E 15 20 8 11 1012.1 1011.3 13.0
 
Date/Time
WST
Temp
°C
App
Temp
°C
Dew
Point
Rel
Hum
%
Delta-T
°C
Wind Press
QNH
hPa
Press
MSL
hPa
Rain
since 9 am
mm
Dir
 
Spd
km/h
Gust
km/h
Spd
kts
Gust
kts
26/11:30pm 20.3 19.1 17.1 82 2.0 E 19 26 10 14 1012.5 1011.7 13.0
26/11:00pm 20.0 20.2 16.8 82 2.0 ESE 11 15 6 8 1012.4 1011.6 13.0
26/10:30pm 20.4 19.8 16.6 79 2.3 ESE 15 20 8 11 1012.1 1011.3 13.0
26/10:00pm 20.1 20.7 16.7 81 2.1 ESE 9 13 5 7 1012.5 1011.7 13.0
26/09:30pm 20.5 19.9 16.7 79 2.3 S 15 22 8 12 1012.5 1011.7 13.0
26/09:00pm 19.5 17.5 17.5 88 1.2 SE 24 35 13 19 1012.0 1011.2 13.0
26/08:30pm 18.9 17.7 17.6 92 0.8 SE 20 28 11 15 1012.4 1011.6 12.4
26/08:00pm 18.8 17.6 17.5 92 0.8 SE 20 26 11 14 1013.2 1012.4 9.8
26/07:30pm 18.8 16.8 17.3 91 0.9 SW 24 35 13 19 1013.9 1013.2 6.2
26/07:00pm 19.1 15.3 16.7 86 1.5 SW 32 41 17 22 1012.4 1011.6 2.0
26/06:30pm 20.5 17.7 16.3 77 2.6 WSW 26 41 14 22 1012.5 1011.7 0.8
26/06:02pm 20.7 16.7 16.7 78 2.4 W 33 52 18 28 1011.6 1010.8 0.4
26/06:00pm 20.5 16.1 16.7 79 2.3 W 35 52 19 28 1011.5 1010.7 0.4
26/05:56pm 20.4 16.6 16.6 79 2.3 W 32 52 17 28 1010.9 1010.1 0.4
26/05:30pm 23.2 16.5 14.7 58 5.1 W 43 57 23 31 1010.6 1009.8 0.0
26/05:14pm 26.0 16.8 12.1 42 8.1 WNW 52 72 28 39 1009.8 1009.0 0.0
26/05:13pm 26.1 17.5 11.8 41 8.3 WNW 48 65 26 35 1009.9 1009.1 0.0
26/05:09pm 29.0 21.2 11.1 33 10.3 NNW 43 63 23 34 1010.2 1009.4 0.0
26/05:00pm 32.4 26.5 5.8 19 14.4 E 26 39 14 21 1007.8 1007.0 0.0
26/04:30pm 32.5 25.9 5.9 19 14.4 E 30 44 16 24 1007.2 1006.4 0.0
26/04:01pm 32.8 26.2 6.2 19 14.5 E 30 48 16 26 1007.3 1006.5 0.0
26/04:00pm 32.8 25.8 6.2 19 14.5 E 32 48 17 26 1007.4 1006.6 0.0
26/03:30pm 32.9 25.4 6.2 19 14.5 E 35 48 19 26 1008.1 1007.3 0.0
26/03:00pm 33.7 26.2 6.1 18 15.1 E 35 54 19 29 1008.3 1007.5 0.0
26/02:59pm 33.7 26.2 6.1 18 15.1 E 35 54 19 29 1008.4 1007.6 0.0
26/02:30pm 33.4 26.0 6.6 19 14.7 E 35 44 19 24 1008.9 1008.1 0.0
26/02:00pm 34.3 26.7 5.8 17 15.5 ENE 35 48 19 26 1009.9 1009.1 0.0
26/01:30pm 34.8 27.1 7.0 18 15.5 ENE 37 46 20 25 1010.4 1009.6 0.0
26/01:00pm 34.2 26.9 7.3 19 15.0 ENE 35 44 19 24 1010.9 1010.1 0.0
26/12:30pm 32.8 24.9 6.2 19 14.5 ENE 37 48 20 26 1011.6 1010.8 0.0
26/12:00pm 32.6 24.0 6.7 20 14.2 ENE 41 50 22 27 1012.0 1011.2 0.0
26/11:30am 29.8 23.2 7.7 25 12.1 ENE 32 43 17 23 1012.4 1011.6 0.0
26/11:00am 29.8 22.3 6.5 23 12.5 ENE 35 48 19 26 1012.9 1012.1 0.0
26/10:30am 30.2 22.3 6.1 22 12.9 NE 37 50 20 27 1013.3 1012.5 0.0
26/10:00am 33.6 27.3 7.5 20 14.6 NE 30 43 16 23 1013.5 1012.8 0.0
26/09:30am 31.5 24.6 6.5 21 13.6 NE 32 44 17 24 1013.8 1013.1 0.0
26/09:00am 28.5 21.5 6.0 24 11.9 ENE 32 41 17 22 1014.3 1013.6 0.0
26/08:30am 26.7 21.9 5.6 26 11.0 E 20 37 11 20 1014.7 1013.9 0.0
26/08:00am 24.8 20.3 7.0 32 9.4 E 20 28 11 15 1015.0 1014.2 0.0
26/07:30am 23.2 18.9 7.7 37 8.2 E 20 30 11 16 1015.1 1014.3 0.0
26/07:00am 21.6 17.0 8.1 42 7.1 E 22 30 12 16 1014.8 1014.0 0.0
26/06:30am 20.7 17.0 9.3 48 6.1 ESE 19 28 10 15 1014.6 1013.8 0.0
26/06:00am 18.9 15.1 9.7 55 4.9 ESE 20 30 11 16 1014.6 1013.8 0.0
26/05:30am 18.7 14.5 9.8 56 4.8 ESE 22 30 12 16 1014.3 1013.6 0.0
26/05:00am 18.6 13.7 9.9 57 4.7 ESE 26 35 14 19 1014.5 1013.7 0.0
26/04:30am 18.4 14.4 10.3 59 4.4 ESE 22 30 12 16 1014.5 1013.7 0.0
26/04:00am 18.4 14.7 10.3 59 4.4 ESE 20 30 11 16 1014.8 1014.0 0.0
26/03:30am 18.5 14.8 10.3 59 4.4 ESE 20 32 11 17 1014.6 1013.8 0.0
26/03:00am 18.7 15.2 10.3 58 4.5 ESE 19 30 10 16 1014.6 1013.8 0.0
26/02:30am 18.8 15.3 10.1 57 4.7 ESE 19 30 10 16 1014.2 1013.5 0.0
26/02:00am 19.2 15.1 10.2 56 4.9 ESE 22 32 12 17 1014.0 1013.3 0.0
26/01:30am 19.5 15.8 10.0 54 5.1 ESE 20 30 11 16 1014.5 1013.7 0.0
26/01:00am 19.7 15.9 9.9 53 5.3 ESE 20 33 11 18 1014.6 1013.8 0.0
26/12:30am 20.4 15.9 9.9 51 5.7 ESE 24 37 13 20 1014.7 1013.9 0.0
26/12:00am 21.0 16.5 9.9 49 6.0 ESE 24 33 13 18 1015.1 1014.3 0.0

Other Formats:

Comma delimited format used in spreadsheet applications
http://www.bom.gov.au/fwo/IDW60801/IDW60801.95625.axf

JavaScript Object Notation format (JSON) in row-major order
http://www.bom.gov.au/fwo/IDW60801/IDW60801.95625.json